Hauptseite
METAR-TAF:

METAR-TAF

Flughäfen :

Flughafen Stockholm/Arlanda

Stockholm-Arlanda, Schweden

Breite: 59-39N, Länge: 017-57E, Höhe: 38 m

Beobachtung

Neuester Wetterbericht von vor 31 Minuten, um 03:50 UTC
Wind 3 kt aus West/Südwest
Temperatur -15°C
Luftfeuchtigkeit 85%
Luftdruck 1015 hPa
Sichtweite 10 km oder mehr
keine Wolken unter 1500 m und keine Kumulonimbus oder Gewitterwolken

METAR: ESSA 210350Z 25003KT CAVOK M15/M17 Q1015 R01L/19//59 R08/19//63 R01R/SNOCLO NOSIG

Zeit: 05:21 (04:21 UTC)

Prognose

Neuester Wetterbericht von vor 4 Stunden und 51 Minuten, um 23:30 UTC
Gültige Prognose vom 21 um 00 UTC bis 21 um 24 UTC
Wind 4 kt aus West
Sichtweite 10 km oder mehr
keine Wolken unter 1500 m und keine Kumulonimbus oder Gewitterwolken
Wahrscheinlichkeit 40%
vom 21 um 18 UTC bis 21 um 24 UTC
Sichtweite: 0800 m
Nebelschwaden

TAF: ESSA 202330Z 2100/2124 28004KT CAVOK PROB40 2118/2124 0800 BCFG

Wetterbeobachtungen und Prognosen von mehr als 4000 Flughäfen (METAR und TAF Bericht).

Die verfügbaren Stationen werden durch gelbe und rote Markierungen auf der Karte dargestellt.

Führen Sie die Maus auf sie, um den Namen der Station zu sehen.

Darauf klicken, um die Beobachtung von Wetterbeobachtungen und Prognosen zu sehen.

Um die Karte zu ändern : klicken Sie auf den grünen Tasten mit einem schwarzen Kreuz Zum Vergrößern, auf den grünen Button mit einem Gedankenstrich zu verkleinern, oder auf die grünen Pfeile für benachbarte Karten.


METAR-TAF: